sensor_id;sensor_type;location;lat;lon;timestamp;P1;durP1;ratioP1;P2;durP2;ratioP2
54679;SDS011;40578;53.178;5.846;2022-12-20T00:00:45;9.70;;;6.13;;
54679;SDS011;40578;53.178;5.846;2022-12-20T00:03:10;11.53;;;7.27;;
54679;SDS011;40578;53.178;5.846;2022-12-20T00:05:37;10.77;;;6.77;;
54679;SDS011;40578;53.178;5.846;2022-12-20T00:08:04;12.18;;;6.47;;
54679;SDS011;40578;53.178;5.846;2022-12-20T00:10:30;8.90;;;5.80;;
54679;SDS011;40578;53.178;5.846;2022-12-20T00:12:59;11.25;;;6.85;;
54679;SDS011;40578;53.178;5.846;2022-12-20T00:15:24;9.47;;;6.13;;
54679;SDS011;40578;53.178;5.846;2022-12-20T00:17:50;9.00;;;6.40;;
54679;SDS011;40578;53.178;5.846;2022-12-20T00:20:16;9.30;;;6.50;;
54679;SDS011;40578;53.178;5.846;2022-12-20T00:22:41;9.70;;;6.00;;
54679;SDS011;40578;53.178;5.846;2022-12-20T00:25:07;10.90;;;6.37;;
54679;SDS011;40578;53.178;5.846;2022-12-20T00:27:33;11.40;;;6.03;;
54679;SDS011;40578;53.178;5.846;2022-12-20T00:29:58;8.30;;;5.80;;
54679;SDS011;40578;53.178;5.846;2022-12-20T00:32:24;10.10;;;6.10;;
54679;SDS011;40578;53.178;5.846;2022-12-20T00:34:50;9.38;;;6.47;;
54679;SDS011;40578;53.178;5.846;2022-12-20T00:37:16;10.17;;;6.07;;
54679;SDS011;40578;53.178;5.846;2022-12-20T00:39:42;10.37;;;6.30;;
54679;SDS011;40578;53.178;5.846;2022-12-20T00:42:07;9.07;;;5.87;;
54679;SDS011;40578;53.178;5.846;2022-12-20T00:44:33;10.23;;;6.30;;
54679;SDS011;40578;53.178;5.846;2022-12-20T00:46:58;8.87;;;6.37;;
54679;SDS011;40578;53.178;5.846;2022-12-20T00:49:24;10.17;;;6.43;;
54679;SDS011;40578;53.178;5.846;2022-12-20T00:51:50;10.57;;;5.83;;
54679;SDS011;40578;53.178;5.846;2022-12-20T00:54:15;7.93;;;6.40;;
54679;SDS011;40578;53.178;5.846;2022-12-20T00:56:41;12.23;;;6.70;;
54679;SDS011;40578;53.178;5.846;2022-12-20T00:59:06;9.23;;;6.27;;
54679;SDS011;40578;53.178;5.846;2022-12-20T01:01:32;10.20;;;6.17;;
54679;SDS011;40578;53.178;5.846;2022-12-20T01:03:59;8.95;;;6.35;;
54679;SDS011;40578;53.178;5.846;2022-12-20T01:06:25;8.93;;;5.85;;
54679;SDS011;40578;53.178;5.846;2022-12-20T01:08:51;9.10;;;6.22;;
54679;SDS011;40578;53.178;5.846;2022-12-20T01:11:19;11.10;;;6.95;;
54679;SDS011;40578;53.178;5.846;2022-12-20T01:13:49;8.38;;;5.90;;
54679;SDS011;40578;53.178;5.846;2022-12-20T01:16:17;11.90;;;6.45;;
54679;SDS011;40578;53.178;5.846;2022-12-20T01:18:45;8.45;;;6.18;;
54679;SDS011;40578;53.178;5.846;2022-12-20T01:21:12;10.23;;;6.15;;
54679;SDS011;40578;53.178;5.846;2022-12-20T01:23:39;9.48;;;6.40;;
54679;SDS011;40578;53.178;5.846;2022-12-20T01:26:05;7.83;;;5.80;;
54679;SDS011;40578;53.178;5.846;2022-12-20T01:28:36;9.30;;;6.57;;
54679;SDS011;40578;53.178;5.846;2022-12-20T01:31:06;10.38;;;6.82;;
54679;SDS011;40578;53.178;5.846;2022-12-20T01:33:36;12.50;;;6.57;;
54679;SDS011;40578;53.178;5.846;2022-12-20T01:36:06;9.10;;;5.83;;
54679;SDS011;40578;53.178;5.846;2022-12-20T01:38:34;11.85;;;6.15;;
54679;SDS011;40578;53.178;5.846;2022-12-20T01:41:00;12.97;;;6.57;;
54679;SDS011;40578;53.178;5.846;2022-12-20T01:43:43;9.43;;;6.03;;
54679;SDS011;40578;53.178;5.846;2022-12-20T01:46:11;8.57;;;5.68;;
54679;SDS011;40578;53.178;5.846;2022-12-20T01:48:36;10.00;;;6.23;;
54679;SDS011;40578;53.178;5.846;2022-12-20T01:51:03;12.85;;;6.55;;
54679;SDS011;40578;53.178;5.846;2022-12-20T01:53:29;8.98;;;6.03;;
54679;SDS011;40578;53.178;5.846;2022-12-20T01:55:54;10.53;;;5.57;;
54679;SDS011;40578;53.178;5.846;2022-12-20T01:58:21;8.57;;;5.95;;
54679;SDS011;40578;53.178;5.846;2022-12-20T02:00:46;7.83;;;5.43;;
54679;SDS011;40578;53.178;5.846;2022-12-20T02:03:13;8.43;;;5.60;;
54679;SDS011;40578;53.178;5.846;2022-12-20T02:05:42;9.98;;;5.35;;
54679;SDS011;40578;53.178;5.846;2022-12-20T02:08:10;8.50;;;5.43;;
54679;SDS011;40578;53.178;5.846;2022-12-20T02:16:25;7.93;;;5.63;;
54679;SDS011;40578;53.178;5.846;2022-12-20T02:18:58;8.50;;;5.30;;
54679;SDS011;40578;53.178;5.846;2022-12-20T02:21:39;9.63;;;5.35;;
54679;SDS011;40578;53.178;5.846;2022-12-20T02:24:14;9.00;;;5.78;;
54679;SDS011;40578;53.178;5.846;2022-12-20T02:29:39;10.88;;;6.00;;
54679;SDS011;40578;53.178;5.846;2022-12-20T02:32:27;7.60;;;5.38;;
54679;SDS011;40578;53.178;5.846;2022-12-20T02:35:12;11.55;;;6.63;;
54679;SDS011;40578;53.178;5.846;2022-12-20T02:37:49;9.65;;;6.20;;
54679;SDS011;40578;53.178;5.846;2022-12-20T02:40:20;12.60;;;6.78;;
54679;SDS011;40578;53.178;5.846;2022-12-20T02:43:07;9.43;;;6.28;;
54679;SDS011;40578;53.178;5.846;2022-12-20T02:46:12;9.77;;;5.93;;
54679;SDS011;40578;53.178;5.846;2022-12-20T02:48:40;10.57;;;6.70;;
54679;SDS011;40578;53.178;5.846;2022-12-20T02:51:08;11.27;;;7.05;;
54679;SDS011;40578;53.178;5.846;2022-12-20T02:53:35;10.52;;;6.78;;
54679;SDS011;40578;53.178;5.846;2022-12-20T03:01:16;12.85;;;7.43;;
54679;SDS011;40578;53.178;5.846;2022-12-20T03:03:49;10.75;;;7.03;;
54679;SDS011;40578;53.178;5.846;2022-12-20T03:06:16;10.05;;;6.82;;
54679;SDS011;40578;53.178;5.846;2022-12-20T03:08:42;9.33;;;6.87;;
54679;SDS011;40578;53.178;5.846;2022-12-20T03:11:07;11.23;;;6.60;;
54679;SDS011;40578;53.178;5.846;2022-12-20T03:13:33;11.17;;;6.87;;
54679;SDS011;40578;53.178;5.846;2022-12-20T03:15:58;9.60;;;7.17;;
54679;SDS011;40578;53.178;5.846;2022-12-20T03:18:24;11.67;;;7.27;;
54679;SDS011;40578;53.178;5.846;2022-12-20T03:20:50;11.77;;;7.50;;
54679;SDS011;40578;53.178;5.846;2022-12-20T03:23:15;11.73;;;7.33;;
54679;SDS011;40578;53.178;5.846;2022-12-20T03:25:41;11.33;;;7.33;;
54679;SDS011;40578;53.178;5.846;2022-12-20T03:28:06;10.70;;;7.00;;
54679;SDS011;40578;53.178;5.846;2022-12-20T03:30:32;13.37;;;6.67;;
54679;SDS011;40578;53.178;5.846;2022-12-20T03:32:58;11.87;;;7.27;;
54679;SDS011;40578;53.178;5.846;2022-12-20T03:35:23;11.30;;;7.33;;
54679;SDS011;40578;53.178;5.846;2022-12-20T03:37:49;12.87;;;7.07;;
54679;SDS011;40578;53.178;5.846;2022-12-20T03:40:14;12.00;;;6.83;;
54679;SDS011;40578;53.178;5.846;2022-12-20T03:42:40;11.43;;;6.90;;
54679;SDS011;40578;53.178;5.846;2022-12-20T03:45:06;9.80;;;7.00;;
54679;SDS011;40578;53.178;5.846;2022-12-20T03:47:32;8.38;;;6.72;;
54679;SDS011;40578;53.178;5.846;2022-12-20T03:49:57;11.97;;;6.73;;
54679;SDS011;40578;53.178;5.846;2022-12-20T03:52:23;10.20;;;7.07;;
54679;SDS011;40578;53.178;5.846;2022-12-20T03:54:49;9.47;;;6.67;;
54679;SDS011;40578;53.178;5.846;2022-12-20T03:57:14;9.80;;;6.60;;
54679;SDS011;40578;53.178;5.846;2022-12-20T03:59:40;9.43;;;6.53;;
54679;SDS011;40578;53.178;5.846;2022-12-20T04:04:33;9.48;;;7.03;;
54679;SDS011;40578;53.178;5.846;2022-12-20T04:06:58;9.37;;;7.23;;
54679;SDS011;40578;53.178;5.846;2022-12-20T04:09:24;11.20;;;7.20;;
54679;SDS011;40578;53.178;5.846;2022-12-20T04:11:49;10.07;;;7.00;;
54679;SDS011;40578;53.178;5.846;2022-12-20T04:14:15;10.57;;;7.10;;
54679;SDS011;40578;53.178;5.846;2022-12-20T04:16:41;11.47;;;6.73;;
54679;SDS011;40578;53.178;5.846;2022-12-20T04:19:06;11.63;;;6.83;;
54679;SDS011;40578;53.178;5.846;2022-12-20T04:21:32;9.77;;;6.90;;
54679;SDS011;40578;53.178;5.846;2022-12-20T04:24:00;11.05;;;7.15;;
54679;SDS011;40578;53.178;5.846;2022-12-20T04:26:27;10.02;;;7.00;;
54679;SDS011;40578;53.178;5.846;2022-12-20T04:28:53;11.90;;;7.90;;
54679;SDS011;40578;53.178;5.846;2022-12-20T04:31:19;10.47;;;7.27;;
54679;SDS011;40578;53.178;5.846;2022-12-20T04:33:45;10.97;;;7.13;;
54679;SDS011;40578;53.178;5.846;2022-12-20T04:36:12;10.75;;;7.03;;
54679;SDS011;40578;53.178;5.846;2022-12-20T04:38:38;11.45;;;8.00;;
54679;SDS011;40578;53.178;5.846;2022-12-20T04:41:04;9.07;;;7.00;;
54679;SDS011;40578;53.178;5.846;2022-12-20T04:43:30;11.43;;;7.43;;
54679;SDS011;40578;53.178;5.846;2022-12-20T04:45:55;12.27;;;7.10;;
54679;SDS011;40578;53.178;5.846;2022-12-20T04:48:22;11.03;;;7.40;;
54679;SDS011;40578;53.178;5.846;2022-12-20T04:50:51;10.30;;;7.32;;
54679;SDS011;40578;53.178;5.846;2022-12-20T04:53:18;10.80;;;7.60;;
54679;SDS011;40578;53.178;5.846;2022-12-20T04:56:02;12.15;;;6.97;;
54679;SDS011;40578;53.178;5.846;2022-12-20T04:58:28;10.68;;;6.93;;
54679;SDS011;40578;53.178;5.846;2022-12-20T05:00:54;11.57;;;7.40;;
54679;SDS011;40578;53.178;5.846;2022-12-20T05:03:21;10.50;;;7.10;;
54679;SDS011;40578;53.178;5.846;2022-12-20T05:05:48;11.02;;;6.85;;
54679;SDS011;40578;53.178;5.846;2022-12-20T05:08:13;8.50;;;6.70;;
54679;SDS011;40578;53.178;5.846;2022-12-20T05:10:39;9.87;;;6.90;;
54679;SDS011;40578;53.178;5.846;2022-12-20T05:13:05;10.10;;;6.43;;
54679;SDS011;40578;53.178;5.846;2022-12-20T05:15:31;10.57;;;6.43;;
54679;SDS011;40578;53.178;5.846;2022-12-20T05:17:57;11.27;;;6.47;;
54679;SDS011;40578;53.178;5.846;2022-12-20T05:20:26;9.60;;;6.55;;
54679;SDS011;40578;53.178;5.846;2022-12-20T05:22:56;10.38;;;6.80;;
54679;SDS011;40578;53.178;5.846;2022-12-20T05:25:41;11.27;;;6.72;;
54679;SDS011;40578;53.178;5.846;2022-12-20T05:28:27;8.53;;;6.67;;
54679;SDS011;40578;53.178;5.846;2022-12-20T05:30:53;9.93;;;6.50;;
54679;SDS011;40578;53.178;5.846;2022-12-20T05:33:19;9.77;;;6.17;;
54679;SDS011;40578;53.178;5.846;2022-12-20T05:35:45;11.67;;;6.60;;
54679;SDS011;40578;53.178;5.846;2022-12-20T05:38:10;8.97;;;6.40;;
54679;SDS011;40578;53.178;5.846;2022-12-20T05:40:36;10.90;;;6.63;;
54679;SDS011;40578;53.178;5.846;2022-12-20T05:43:03;9.27;;;6.38;;
54679;SDS011;40578;53.178;5.846;2022-12-20T05:45:30;8.40;;;6.63;;
54679;SDS011;40578;53.178;5.846;2022-12-20T05:47:56;10.00;;;6.93;;
54679;SDS011;40578;53.178;5.846;2022-12-20T05:50:22;8.87;;;6.60;;
54679;SDS011;40578;53.178;5.846;2022-12-20T05:52:48;8.43;;;6.27;;
54679;SDS011;40578;53.178;5.846;2022-12-20T05:55:13;8.03;;;6.00;;
54679;SDS011;40578;53.178;5.846;2022-12-20T05:57:39;10.97;;;7.13;;
54679;SDS011;40578;53.178;5.846;2022-12-20T06:00:05;8.57;;;6.10;;
54679;SDS011;40578;53.178;5.846;2022-12-20T06:02:31;9.93;;;6.30;;
54679;SDS011;40578;53.178;5.846;2022-12-20T06:04:57;12.17;;;7.13;;
54679;SDS011;40578;53.178;5.846;2022-12-20T06:07:24;9.18;;;6.07;;
54679;SDS011;40578;53.178;5.846;2022-12-20T06:09:53;9.13;;;6.22;;
54679;SDS011;40578;53.178;5.846;2022-12-20T06:12:22;8.45;;;6.07;;
54679;SDS011;40578;53.178;5.846;2022-12-20T06:14:48;9.15;;;6.47;;
54679;SDS011;40578;53.178;5.846;2022-12-20T06:17:13;8.70;;;6.20;;
54679;SDS011;40578;53.178;5.846;2022-12-20T06:19:39;10.27;;;6.07;;
54679;SDS011;40578;53.178;5.846;2022-12-20T06:22:07;10.55;;;6.05;;
54679;SDS011;40578;53.178;5.846;2022-12-20T06:24:34;9.80;;;7.13;;
54679;SDS011;40578;53.178;5.846;2022-12-20T06:27:00;9.82;;;6.28;;
54679;SDS011;40578;53.178;5.846;2022-12-20T06:29:26;11.25;;;6.50;;
54679;SDS011;40578;53.178;5.846;2022-12-20T06:31:52;9.90;;;6.80;;
54679;SDS011;40578;53.178;5.846;2022-12-20T06:34:18;9.33;;;6.50;;
54679;SDS011;40578;53.178;5.846;2022-12-20T06:36:45;11.75;;;7.38;;
54679;SDS011;40578;53.178;5.846;2022-12-20T06:41:38;13.45;;;7.57;;
54679;SDS011;40578;53.178;5.846;2022-12-20T06:44:04;13.55;;;7.93;;
54679;SDS011;40578;53.178;5.846;2022-12-20T06:46:30;10.60;;;7.57;;
54679;SDS011;40578;53.178;5.846;2022-12-20T06:48:56;12.47;;;7.30;;
54679;SDS011;40578;53.178;5.846;2022-12-20T06:51:22;9.90;;;7.38;;
54679;SDS011;40578;53.178;5.846;2022-12-20T06:53:47;11.97;;;8.33;;
54679;SDS011;40578;53.178;5.846;2022-12-20T06:56:13;12.27;;;7.63;;
54679;SDS011;40578;53.178;5.846;2022-12-20T06:58:39;11.63;;;7.87;;
54679;SDS011;40578;53.178;5.846;2022-12-20T07:01:05;12.63;;;8.30;;
54679;SDS011;40578;53.178;5.846;2022-12-20T07:03:30;10.43;;;7.77;;
54679;SDS011;40578;53.178;5.846;2022-12-20T07:05:56;10.80;;;7.83;;
54679;SDS011;40578;53.178;5.846;2022-12-20T07:08:22;10.30;;;7.97;;
54679;SDS011;40578;53.178;5.846;2022-12-20T07:10:48;11.05;;;8.15;;
54679;SDS011;40578;53.178;5.846;2022-12-20T07:13:16;12.80;;;8.85;;
54679;SDS011;40578;53.178;5.846;2022-12-20T07:15:43;11.85;;;8.50;;
54679;SDS011;40578;53.178;5.846;2022-12-20T07:18:08;11.30;;;8.73;;
54679;SDS011;40578;53.178;5.846;2022-12-20T07:20:34;11.77;;;8.57;;
54679;SDS011;40578;53.178;5.846;2022-12-20T07:23:00;11.37;;;8.23;;
54679;SDS011;40578;53.178;5.846;2022-12-20T07:25:26;14.30;;;8.73;;
54679;SDS011;40578;53.178;5.846;2022-12-20T07:27:51;11.43;;;8.60;;
54679;SDS011;40578;53.178;5.846;2022-12-20T07:30:18;11.57;;;8.60;;
54679;SDS011;40578;53.178;5.846;2022-12-20T07:35:10;12.13;;;8.52;;
54679;SDS011;40578;53.178;5.846;2022-12-20T07:37:36;10.77;;;8.70;;
54679;SDS011;40578;53.178;5.846;2022-12-20T07:40:02;12.43;;;8.73;;
54679;SDS011;40578;53.178;5.846;2022-12-20T07:42:28;12.25;;;8.20;;
54679;SDS011;40578;53.178;5.846;2022-12-20T07:44:53;12.50;;;8.90;;
54679;SDS011;40578;53.178;5.846;2022-12-20T07:47:19;14.33;;;9.30;;
54679;SDS011;40578;53.178;5.846;2022-12-20T07:49:45;13.57;;;7.67;;
54679;SDS011;40578;53.178;5.846;2022-12-20T07:52:11;12.20;;;8.13;;
54679;SDS011;40578;53.178;5.846;2022-12-20T07:54:42;14.18;;;8.65;;
54679;SDS011;40578;53.178;5.846;2022-12-20T07:57:12;12.52;;;8.18;;
54679;SDS011;40578;53.178;5.846;2022-12-20T07:59:47;13.48;;;7.75;;
54679;SDS011;40578;53.178;5.846;2022-12-20T08:02:19;10.60;;;6.70;;
54679;SDS011;40578;53.178;5.846;2022-12-20T08:04:50;10.68;;;7.28;;
54679;SDS011;40578;53.178;5.846;2022-12-20T08:07:18;10.75;;;7.60;;
54679;SDS011;40578;53.178;5.846;2022-12-20T08:09:43;10.83;;;6.90;;
54679;SDS011;40578;53.178;5.846;2022-12-20T08:12:11;11.27;;;7.03;;
54679;SDS011;40578;53.178;5.846;2022-12-20T08:14:40;10.07;;;7.38;;
54679;SDS011;40578;53.178;5.846;2022-12-20T08:17:06;11.10;;;7.03;;
54679;SDS011;40578;53.178;5.846;2022-12-20T08:19:31;11.93;;;7.27;;
54679;SDS011;40578;53.178;5.846;2022-12-20T08:21:57;10.10;;;6.50;;
54679;SDS011;40578;53.178;5.846;2022-12-20T08:24:23;11.00;;;6.90;;
54679;SDS011;40578;53.178;5.846;2022-12-20T08:26:48;7.97;;;6.20;;
54679;SDS011;40578;53.178;5.846;2022-12-20T08:29:14;10.00;;;6.43;;
54679;SDS011;40578;53.178;5.846;2022-12-20T08:31:40;12.77;;;6.40;;
54679;SDS011;40578;53.178;5.846;2022-12-20T08:34:06;10.53;;;6.53;;
54679;SDS011;40578;53.178;5.846;2022-12-20T08:36:32;9.52;;;5.72;;
54679;SDS011;40578;53.178;5.846;2022-12-20T08:39:01;11.83;;;5.93;;
54679;SDS011;40578;53.178;5.846;2022-12-20T08:41:30;10.45;;;5.85;;
54679;SDS011;40578;53.178;5.846;2022-12-20T08:43:57;16.27;;;11.30;;
54679;SDS011;40578;53.178;5.846;2022-12-20T08:46:23;24.67;;;16.07;;
54679;SDS011;40578;53.178;5.846;2022-12-20T08:48:49;8.20;;;5.37;;
54679;SDS011;40578;53.178;5.846;2022-12-20T08:51:14;10.00;;;5.80;;
54679;SDS011;40578;53.178;5.846;2022-12-20T08:53:40;8.00;;;5.20;;
54679;SDS011;40578;53.178;5.846;2022-12-20T08:56:10;7.60;;;5.10;;
54679;SDS011;40578;53.178;5.846;2022-12-20T08:58:40;9.32;;;5.90;;
54679;SDS011;40578;53.178;5.846;2022-12-20T09:01:08;9.00;;;5.50;;
54679;SDS011;40578;53.178;5.846;2022-12-20T09:03:36;10.40;;;6.32;;
54679;SDS011;40578;53.178;5.846;2022-12-20T09:06:09;9.05;;;5.40;;
54679;SDS011;40578;53.178;5.846;2022-12-20T09:08:37;9.70;;;5.43;;
54679;SDS011;40578;53.178;5.846;2022-12-20T09:11:04;8.48;;;5.95;;
54679;SDS011;40578;53.178;5.846;2022-12-20T09:13:31;8.80;;;5.45;;
54679;SDS011;40578;53.178;5.846;2022-12-20T09:15:59;8.47;;;5.13;;
54679;SDS011;40578;53.178;5.846;2022-12-20T09:18:29;7.60;;;5.45;;
54679;SDS011;40578;53.178;5.846;2022-12-20T09:20:58;8.23;;;5.25;;
54679;SDS011;40578;53.178;5.846;2022-12-20T09:23:25;8.55;;;5.32;;
54679;SDS011;40578;53.178;5.846;2022-12-20T09:25:51;7.85;;;4.90;;
54679;SDS011;40578;53.178;5.846;2022-12-20T09:28:17;9.07;;;5.00;;
54679;SDS011;40578;53.178;5.846;2022-12-20T09:30:42;9.33;;;4.60;;
54679;SDS011;40578;53.178;5.846;2022-12-20T09:33:08;12.17;;;4.97;;
54679;SDS011;40578;53.178;5.846;2022-12-20T09:35:34;6.55;;;4.75;;
54679;SDS011;40578;53.178;5.846;2022-12-20T09:38:00;7.53;;;5.03;;
54679;SDS011;40578;53.178;5.846;2022-12-20T09:40:26;7.50;;;4.60;;
54679;SDS011;40578;53.178;5.846;2022-12-20T09:42:56;6.72;;;4.60;;
54679;SDS011;40578;53.178;5.846;2022-12-20T09:45:28;6.80;;;4.83;;
54679;SDS011;40578;53.178;5.846;2022-12-20T09:47:59;6.63;;;4.70;;
54679;SDS011;40578;53.178;5.846;2022-12-20T09:50:43;6.60;;;4.27;;
54679;SDS011;40578;53.178;5.846;2022-12-20T09:53:23;8.13;;;4.50;;
54679;SDS011;40578;53.178;5.846;2022-12-20T09:56:09;8.45;;;4.85;;
54679;SDS011;40578;53.178;5.846;2022-12-20T10:01:29;6.70;;;4.57;;
54679;SDS011;40578;53.178;5.846;2022-12-20T10:03:56;8.40;;;4.57;;
54679;SDS011;40578;53.178;5.846;2022-12-20T10:06:31;7.57;;;4.43;;
54679;SDS011;40578;53.178;5.846;2022-12-20T10:12:03;9.27;;;4.13;;
54679;SDS011;40578;53.178;5.846;2022-12-20T10:14:52;6.88;;;4.75;;
54679;SDS011;40578;53.178;5.846;2022-12-20T10:25:33;5.88;;;3.42;;
54679;SDS011;40578;53.178;5.846;2022-12-20T10:28:00;6.32;;;4.32;;
54679;SDS011;40578;53.178;5.846;2022-12-20T10:30:28;10.18;;;4.65;;
54679;SDS011;40578;53.178;5.846;2022-12-20T10:32:57;6.22;;;3.90;;
54679;SDS011;40578;53.178;5.846;2022-12-20T10:35:28;8.15;;;4.50;;
54679;SDS011;40578;53.178;5.846;2022-12-20T10:38:11;6.57;;;3.92;;
54679;SDS011;40578;53.178;5.846;2022-12-20T10:43:19;6.47;;;4.03;;
54679;SDS011;40578;53.178;5.846;2022-12-20T10:46:00;7.72;;;3.85;;
54679;SDS011;40578;53.178;5.846;2022-12-20T10:48:32;6.85;;;4.07;;
54679;SDS011;40578;53.178;5.846;2022-12-20T10:53:51;8.95;;;4.00;;
54679;SDS011;40578;53.178;5.846;2022-12-20T10:58:57;7.40;;;4.50;;
54679;SDS011;40578;53.178;5.846;2022-12-20T11:01:32;8.32;;;4.30;;
54679;SDS011;40578;53.178;5.846;2022-12-20T11:04:45;5.47;;;3.75;;
54679;SDS011;40578;53.178;5.846;2022-12-20T11:06:51;8.60;;;4.30;;
54679;SDS011;40578;53.178;5.846;2022-12-20T11:09:21;8.07;;;4.47;;
54679;SDS011;40578;53.178;5.846;2022-12-20T11:14:28;7.60;;;4.38;;
54679;SDS011;40578;53.178;5.846;2022-12-20T11:16:55;7.40;;;4.35;;
54679;SDS011;40578;53.178;5.846;2022-12-20T11:30:47;8.93;;;5.70;;
54679;SDS011;40578;53.178;5.846;2022-12-20T11:33:29;9.00;;;6.28;;
54679;SDS011;40578;53.178;5.846;2022-12-20T11:36:17;8.88;;;6.15;;
54679;SDS011;40578;53.178;5.846;2022-12-20T11:38:51;7.40;;;5.38;;
54679;SDS011;40578;53.178;5.846;2022-12-20T11:44:00;9.40;;;6.35;;
54679;SDS011;40578;53.178;5.846;2022-12-20T11:51:46;9.20;;;6.28;;
54679;SDS011;40578;53.178;5.846;2022-12-20T11:56:49;9.85;;;7.38;;
54679;SDS011;40578;53.178;5.846;2022-12-20T12:04:25;10.00;;;7.50;;
54679;SDS011;40578;53.178;5.846;2022-12-20T12:06:58;12.55;;;7.93;;
54679;SDS011;40578;53.178;5.846;2022-12-20T12:12:03;13.33;;;8.60;;
54679;SDS011;40578;53.178;5.846;2022-12-20T12:14:37;10.68;;;8.43;;
54679;SDS011;40578;53.178;5.846;2022-12-20T12:17:17;14.65;;;9.27;;
54679;SDS011;40578;53.178;5.846;2022-12-20T12:19:52;10.70;;;8.38;;
54679;SDS011;40578;53.178;5.846;2022-12-20T12:22:25;13.02;;;8.73;;
54679;SDS011;40578;53.178;5.846;2022-12-20T12:24:57;13.70;;;9.38;;
54679;SDS011;40578;53.178;5.846;2022-12-20T12:27:27;12.63;;;8.95;;
54679;SDS011;40578;53.178;5.846;2022-12-20T12:29:53;13.20;;;9.90;;
54679;SDS011;40578;53.178;5.846;2022-12-20T12:32:26;11.57;;;8.55;;
54679;SDS011;40578;53.178;5.846;2022-12-20T12:45:58;10.73;;;9.02;;
54679;SDS011;40578;53.178;5.846;2022-12-20T12:48:38;15.73;;;9.52;;
54679;SDS011;40578;53.178;5.846;2022-12-20T12:51:38;13.88;;;9.63;;
54679;SDS011;40578;53.178;5.846;2022-12-20T12:54:15;14.00;;;10.43;;
54679;SDS011;40578;53.178;5.846;2022-12-20T12:57:00;13.93;;;10.27;;
54679;SDS011;40578;53.178;5.846;2022-12-20T13:04:28;11.23;;;9.80;;
54679;SDS011;40578;53.178;5.846;2022-12-20T13:07:25;14.63;;;9.80;;
54679;SDS011;40578;53.178;5.846;2022-12-20T13:09:51;15.27;;;11.23;;
54679;SDS011;40578;53.178;5.846;2022-12-20T13:17:49;14.75;;;11.10;;
54679;SDS011;40578;53.178;5.846;2022-12-20T13:20:18;13.90;;;12.35;;
54679;SDS011;40578;53.178;5.846;2022-12-20T13:25:33;14.18;;;11.15;;
54679;SDS011;40578;53.178;5.846;2022-12-20T13:30:46;16.75;;;11.80;;
54679;SDS011;40578;53.178;5.846;2022-12-20T13:41:22;16.25;;;13.88;;
54679;SDS011;40578;53.178;5.846;2022-12-20T13:46:53;15.70;;;14.00;;
54679;SDS011;40578;53.178;5.846;2022-12-20T13:49:45;18.50;;;14.43;;
54679;SDS011;40578;53.178;5.846;2022-12-20T13:52:21;18.75;;;13.73;;
54679;SDS011;40578;53.178;5.846;2022-12-20T13:54:52;17.90;;;14.70;;
54679;SDS011;40578;53.178;5.846;2022-12-20T13:57:25;17.45;;;14.20;;
54679;SDS011;40578;53.178;5.846;2022-12-20T13:59:58;16.35;;;13.02;;
54679;SDS011;40578;53.178;5.846;2022-12-20T14:02:28;21.30;;;16.48;;
54679;SDS011;40578;53.178;5.846;2022-12-20T14:05:06;19.48;;;15.45;;
54679;SDS011;40578;53.178;5.846;2022-12-20T14:07:40;19.70;;;14.90;;
54679;SDS011;40578;53.178;5.846;2022-12-20T14:10:19;20.67;;;15.52;;
54679;SDS011;40578;53.178;5.846;2022-12-20T14:12:50;20.75;;;15.07;;
54679;SDS011;40578;53.178;5.846;2022-12-20T14:15:34;20.23;;;15.93;;
54679;SDS011;40578;53.178;5.846;2022-12-20T14:18:04;20.30;;;15.38;;
54679;SDS011;40578;53.178;5.846;2022-12-20T14:20:50;18.88;;;15.07;;
54679;SDS011;40578;53.178;5.846;2022-12-20T14:23:22;21.88;;;17.70;;
54679;SDS011;40578;53.178;5.846;2022-12-20T14:25:57;24.52;;;17.88;;
54679;SDS011;40578;53.178;5.846;2022-12-20T14:30:51;25.00;;;19.30;;
54679;SDS011;40578;53.178;5.846;2022-12-20T14:33:39;22.03;;;17.33;;
54679;SDS011;40578;53.178;5.846;2022-12-20T14:38:43;23.38;;;18.60;;
54679;SDS011;40578;53.178;5.846;2022-12-20T14:44:01;21.90;;;17.98;;
54679;SDS011;40578;53.178;5.846;2022-12-20T14:46:37;23.27;;;18.80;;
54679;SDS011;40578;53.178;5.846;2022-12-20T14:49:22;20.77;;;17.97;;
54679;SDS011;40578;53.178;5.846;2022-12-20T14:54:39;23.95;;;18.50;;
54679;SDS011;40578;53.178;5.846;2022-12-20T14:57:21;28.92;;;19.13;;
54679;SDS011;40578;53.178;5.846;2022-12-20T15:00:00;25.10;;;18.63;;
54679;SDS011;40578;53.178;5.846;2022-12-20T15:03:27;25.48;;;19.77;;
54679;SDS011;40578;53.178;5.846;2022-12-20T15:08:09;28.52;;;19.70;;
54679;SDS011;40578;53.178;5.846;2022-12-20T15:10:52;27.20;;;20.88;;
54679;SDS011;40578;53.178;5.846;2022-12-20T15:13:45;31.88;;;22.27;;
54679;SDS011;40578;53.178;5.846;2022-12-20T15:16:15;25.50;;;20.38;;
54679;SDS011;40578;53.178;5.846;2022-12-20T15:18:44;28.58;;;21.02;;
54679;SDS011;40578;53.178;5.846;2022-12-20T15:21:14;27.88;;;19.98;;
54679;SDS011;40578;53.178;5.846;2022-12-20T15:23:47;32.13;;;21.48;;
54679;SDS011;40578;53.178;5.846;2022-12-20T15:26:15;32.53;;;23.30;;
54679;SDS011;40578;53.178;5.846;2022-12-20T15:28:42;30.40;;;22.75;;
54679;SDS011;40578;53.178;5.846;2022-12-20T15:31:11;31.60;;;22.97;;
54679;SDS011;40578;53.178;5.846;2022-12-20T15:33:40;29.38;;;21.20;;
54679;SDS011;40578;53.178;5.846;2022-12-20T15:36:06;32.13;;;24.58;;
54679;SDS011;40578;53.178;5.846;2022-12-20T15:38:41;31.85;;;23.00;;
54679;SDS011;40578;53.178;5.846;2022-12-20T15:41:09;32.17;;;24.13;;
54679;SDS011;40578;53.178;5.846;2022-12-20T15:44:00;31.77;;;23.67;;
54679;SDS011;40578;53.178;5.846;2022-12-20T15:46:29;35.45;;;24.85;;
54679;SDS011;40578;53.178;5.846;2022-12-20T15:48:55;37.90;;;26.55;;
54679;SDS011;40578;53.178;5.846;2022-12-20T15:51:29;33.75;;;23.75;;
54679;SDS011;40578;53.178;5.846;2022-12-20T15:53:56;36.03;;;25.08;;
54679;SDS011;40578;53.178;5.846;2022-12-20T15:56:22;34.55;;;23.17;;
54679;SDS011;40578;53.178;5.846;2022-12-20T15:58:49;39.15;;;27.25;;
54679;SDS011;40578;53.178;5.846;2022-12-20T16:01:35;38.30;;;26.10;;
54679;SDS011;40578;53.178;5.846;2022-12-20T16:04:02;38.15;;;25.45;;
54679;SDS011;40578;53.178;5.846;2022-12-20T16:06:29;37.30;;;25.17;;
54679;SDS011;40578;53.178;5.846;2022-12-20T16:08:54;36.97;;;24.30;;
54679;SDS011;40578;53.178;5.846;2022-12-20T16:11:21;41.03;;;26.23;;
54679;SDS011;40578;53.178;5.846;2022-12-20T16:13:49;42.67;;;28.52;;
54679;SDS011;40578;53.178;5.846;2022-12-20T16:16:22;39.40;;;27.90;;
54679;SDS011;40578;53.178;5.846;2022-12-20T16:18:49;42.28;;;27.52;;
54679;SDS011;40578;53.178;5.846;2022-12-20T16:21:18;39.95;;;25.95;;
54679;SDS011;40578;53.178;5.846;2022-12-20T16:23:49;41.80;;;27.77;;
54679;SDS011;40578;53.178;5.846;2022-12-20T16:26:16;42.83;;;28.30;;
54679;SDS011;40578;53.178;5.846;2022-12-20T16:28:46;44.30;;;28.02;;
54679;SDS011;40578;53.178;5.846;2022-12-20T16:31:29;48.20;;;29.55;;
54679;SDS011;40578;53.178;5.846;2022-12-20T16:33:57;46.47;;;27.80;;
54679;SDS011;40578;53.178;5.846;2022-12-20T16:36:24;40.65;;;27.50;;
54679;SDS011;40578;53.178;5.846;2022-12-20T16:38:50;43.93;;;28.23;;
54679;SDS011;40578;53.178;5.846;2022-12-20T16:41:20;44.67;;;27.17;;
54679;SDS011;40578;53.178;5.846;2022-12-20T16:43:52;41.03;;;26.27;;
54679;SDS011;40578;53.178;5.846;2022-12-20T16:46:19;39.53;;;26.90;;
54679;SDS011;40578;53.178;5.846;2022-12-20T16:48:48;40.50;;;26.95;;
54679;SDS011;40578;53.178;5.846;2022-12-20T16:51:23;41.93;;;25.53;;
54679;SDS011;40578;53.178;5.846;2022-12-20T16:53:54;47.67;;;27.90;;
54679;SDS011;40578;53.178;5.846;2022-12-20T16:56:21;60.22;;;28.63;;